Time;durP1;ratioP1;P1;durP2;ratioP2;P2;SDS_P1;SDS_P2;PMS_P1;PMS_P2;Temp;Humidity;BMP_temperature;BMP_pressure;BME280_temperature;BME280_humidity;BME280_pressure;Samples;Min_cycle;Max_cycle;Signal;HPM_P1;HPM_P2
2022/03/25 00:02:06;;;;;;;55.50;31.95;;;11.00;99.90;;;;;;5078449;28;20040;-62
2022/03/25 00:04:32;;;;;;;53.47;31.70;;;11.00;99.90;;;;;;5078980;28;20037;-62
2022/03/25 00:06:59;;;;;;;51.97;31.23;;;10.90;99.90;;;;;;5078798;28;20032;-62
2022/03/25 00:09:24;;;;;;;53.60;30.90;;;11.00;99.90;;;;;;5078054;28;20066;-62
2022/03/25 00:11:51;;;;;;;53.22;30.83;;;10.90;99.90;;;;;;5061272;28;20033;-62
2022/03/25 00:14:16;;;;;;;50.13;30.23;;;10.90;99.90;;;;;;5077953;28;20035;-62
2022/03/25 00:16:43;;;;;;;53.80;30.17;;;10.90;99.90;;;;;;5077946;28;20399;-62
2022/03/25 00:19:08;;;;;;;53.45;31.25;;;10.80;99.90;;;;;;5077780;28;20100;-62
2022/03/25 00:21:35;;;;;;;56.13;30.40;;;10.80;99.90;;;;;;5078477;28;20048;-62
2022/03/25 00:24:01;;;;;;;51.53;30.35;;;10.80;99.90;;;;;;5077763;28;20037;-62
2022/03/25 00:26:27;;;;;;;54.78;31.13;;;10.70;99.90;;;;;;5078468;28;20107;-62
2022/03/25 00:28:55;;;;;;;58.63;31.55;;;10.70;99.90;;;;;;5077564;28;20307;-62
2022/03/25 00:31:21;;;;;;;54.65;31.63;;;10.70;99.90;;;;;;5077700;28;20041;-62
2022/03/25 00:33:49;;;;;;;51.58;30.27;;;10.70;99.90;;;;;;5077529;28;20411;-62
2022/03/25 00:36:18;;;;;;;56.53;31.30;;;10.70;99.90;;;;;;5077481;28;20041;-62
2022/03/25 00:38:48;;;;;;;56.13;31.27;;;10.70;99.90;;;;;;5077856;28;20127;-61
2022/03/25 00:41:16;;;;;;;50.95;29.73;;;10.60;99.90;;;;;;5078313;28;20033;-62
2022/03/25 00:43:46;;;;;;;51.25;30.38;;;10.60;99.90;;;;;;5077314;28;20060;-61
2022/03/25 00:46:13;;;;;;;56.55;31.00;;;10.50;99.90;;;;;;5078565;28;20432;-62
2022/03/25 00:48:42;;;;;;;57.42;31.35;;;10.50;99.90;;;;;;5077104;28;20041;-62
2022/03/25 00:51:09;;;;;;;53.17;31.00;;;10.50;99.90;;;;;;5077733;28;20031;-62
2022/03/25 00:53:35;;;;;;;53.50;30.45;;;10.40;99.90;;;;;;5077028;28;20016;-61
2022/03/25 00:56:01;;;;;;;54.85;31.08;;;10.40;99.90;;;;;;5077649;28;20262;-61
2022/03/25 00:58:29;;;;;;;58.80;30.90;;;10.30;99.90;;;;;;5076898;28;20037;-61
2022/03/25 01:00:55;;;;;;;51.80;30.50;;;10.30;99.90;;;;;;5076844;28;20048;-62
2022/03/25 01:03:22;;;;;;;52.60;30.63;;;10.30;99.90;;;;;;5077934;28;20032;-62
2022/03/25 01:05:49;;;;;;;54.58;30.88;;;10.30;99.90;;;;;;5077084;28;20289;-62
2022/03/25 01:08:15;;;;;;;51.53;29.08;;;10.20;99.90;;;;;;5077492;28;20029;-62
2022/03/25 01:10:43;;;;;;;51.45;30.00;;;10.20;99.90;;;;;;5077472;28;20075;-62
2022/03/25 01:13:10;;;;;;;52.08;29.58;;;10.20;99.90;;;;;;5077255;28;20028;-62
2022/03/25 01:15:35;;;;;;;54.78;30.92;;;10.20;99.90;;;;;;5077550;28;20040;-62
2022/03/25 01:18:01;;;;;;;54.40;29.60;;;10.20;99.90;;;;;;5076274;28;20033;-62
2022/03/25 01:20:27;;;;;;;51.00;29.17;;;10.10;99.90;;;;;;5059749;28;20036;-62
2022/03/25 01:22:53;;;;;;;52.63;29.58;;;10.00;99.90;;;;;;5077447;28;20036;-62
2022/03/25 01:25:19;;;;;;;54.50;29.65;;;10.00;99.90;;;;;;5077192;28;20344;-62
2022/03/25 01:27:47;;;;;;;52.88;29.17;;;10.00;99.90;;;;;;5076462;28;20123;-62
2022/03/25 01:30:12;;;;;;;52.58;30.35;;;10.00;99.90;;;;;;5059883;28;20380;-62
2022/03/25 01:32:38;;;;;;;54.83;30.95;;;10.00;99.90;;;;;;5076283;28;20041;-62
2022/03/25 01:35:12;;;;;;;52.83;30.42;;;9.90;99.90;;;;;;5077016;28;20020;-62
2022/03/25 01:37:38;;;;;;;52.58;30.10;;;10.00;99.90;;;;;;5077103;28;20056;-62
2022/03/25 01:40:09;;;;;;;56.97;31.08;;;10.00;99.90;;;;;;5059571;28;20459;-62
2022/03/25 01:42:37;;;;;;;51.53;29.38;;;10.00;99.90;;;;;;5077597;28;20419;-63
2022/03/25 01:45:05;;;;;;;61.15;32.53;;;10.00;99.90;;;;;;5077085;28;20033;-62
2022/03/25 01:47:32;;;;;;;53.75;30.27;;;9.90;99.90;;;;;;5077020;28;20033;-62
2022/03/25 01:50:00;;;;;;;56.22;31.20;;;9.90;99.90;;;;;;5076978;28;20043;-62
2022/03/25 01:52:27;;;;;;;55.80;31.42;;;9.90;99.90;;;;;;5059368;28;20039;-63
2022/03/25 01:54:53;;;;;;;57.30;32.60;;;9.90;99.90;;;;;;5076861;28;20024;-63
2022/03/25 01:57:26;;;;;;;58.08;33.15;;;9.80;99.90;;;;;;5076860;28;20056;-62
2022/03/25 01:59:55;;;;;;;63.40;32.33;;;9.70;99.90;;;;;;5059496;28;20081;-63
2022/03/25 02:02:21;;;;;;;60.33;31.38;;;9.60;99.90;;;;;;5059488;28;20037;-62
2022/03/25 02:04:47;;;;;;;58.55;31.10;;;9.60;99.90;;;;;;5076854;28;20040;-62
2022/03/25 02:07:12;;;;;;;58.60;31.38;;;9.60;99.90;;;;;;5076197;28;20040;-62
2022/03/25 02:09:38;;;;;;;62.60;33.45;;;9.50;99.90;;;;;;5076708;28;20040;-62
2022/03/25 02:12:09;;;;;;;57.65;32.28;;;9.50;99.90;;;;;;5059773;28;20134;-62
2022/03/25 02:14:35;;;;;;;58.35;32.22;;;9.50;99.90;;;;;;5075918;28;20289;-62
2022/03/25 02:17:01;;;;;;;59.35;32.95;;;9.60;99.90;;;;;;5075808;28;20028;-63
2022/03/25 02:19:29;;;;;;;57.67;32.67;;;9.50;99.90;;;;;;5076577;28;20400;-62
2022/03/25 02:21:54;;;;;;;56.00;32.60;;;9.50;99.90;;;;;;5075995;28;20028;-62
2022/03/25 02:24:25;;;;;;;59.75;32.88;;;9.30;99.90;;;;;;5075673;28;20300;-63
2022/03/25 02:26:52;;;;;;;62.58;32.40;;;9.50;99.90;;;;;;5059072;28;20037;-63
2022/03/25 02:29:18;;;;;;;57.88;31.70;;;9.50;99.90;;;;;;5075625;28;20041;-63
2022/03/25 02:31:44;;;;;;;59.42;32.28;;;9.40;99.90;;;;;;5058860;28;20037;-63
2022/03/25 02:34:10;;;;;;;66.57;33.47;;;9.40;99.90;;;;;;5076401;28;20424;-63
2022/03/25 02:36:44;;;;;;;60.83;33.25;;;9.30;99.90;;;;;;5076661;28;20350;-63
2022/03/25 02:39:12;;;;;;;58.55;33.05;;;9.20;99.90;;;;;;5075429;28;20060;-63
2022/03/25 02:41:38;;;;;;;61.13;34.15;;;9.20;99.90;;;;;;5075715;28;20024;-63
2022/03/25 02:44:06;;;;;;;62.55;33.58;;;9.20;99.90;;;;;;5075544;28;20115;-62
2022/03/25 02:46:32;;;;;;;60.20;33.33;;;9.10;99.90;;;;;;5075465;28;20412;-63
2022/03/25 02:48:58;;;;;;;63.67;33.72;;;9.10;99.90;;;;;;5075321;28;20071;-63
2022/03/25 02:51:25;;;;;;;60.78;34.33;;;9.10;99.90;;;;;;5058855;28;20028;-63
2022/03/25 02:53:51;;;;;;;58.22;31.98;;;9.20;99.90;;;;;;5075443;28;20105;-63
2022/03/25 02:56:18;;;;;;;62.92;32.35;;;9.20;99.90;;;;;;5075522;28;20040;-63
2022/03/25 02:58:44;;;;;;;62.08;32.63;;;9.20;99.90;;;;;;5075425;28;20063;-63
2022/03/25 03:01:10;;;;;;;59.25;31.95;;;9.10;99.90;;;;;;5076120;28;20028;-63
2022/03/25 03:03:36;;;;;;;62.53;33.83;;;9.00;99.90;;;;;;5075637;28;20419;-63
2022/03/25 03:06:02;;;;;;;60.72;32.60;;;8.90;99.90;;;;;;5076078;28;20105;-63
2022/03/25 03:08:30;;;;;;;62.80;32.97;;;8.90;99.90;;;;;;5075922;28;20032;-62
2022/03/25 03:10:56;;;;;;;58.63;33.15;;;8.90;99.90;;;;;;5075874;28;20021;-62
2022/03/25 03:13:22;;;;;;;61.70;32.08;;;8.80;99.90;;;;;;5075240;28;20029;-63
2022/03/25 03:15:48;;;;;;;59.28;31.55;;;8.80;99.90;;;;;;5058616;28;20037;-63
2022/03/25 03:18:14;;;;;;;58.60;31.90;;;8.70;99.90;;;;;;5075989;28;20037;-63
2022/03/25 03:20:41;;;;;;;59.17;31.33;;;8.70;99.90;;;;;;5078780;28;20032;-62
2022/03/25 03:23:07;;;;;;;59.65;32.53;;;8.70;99.90;;;;;;5078782;28;20047;-62
2022/03/25 03:25:34;;;;;;;55.22;31.58;;;8.70;99.90;;;;;;5079494;28;20413;-63
2022/03/25 03:28:00;;;;;;;57.72;32.53;;;8.70;99.90;;;;;;5079906;28;20055;-63
2022/03/25 03:30:26;;;;;;;54.78;30.05;;;8.70;99.90;;;;;;5078624;28;20032;-63
2022/03/25 03:32:57;;;;;;;58.78;31.58;;;8.70;99.90;;;;;;5079325;28;20044;-62
2022/03/25 03:35:26;;;;;;;61.60;32.40;;;8.70;99.90;;;;;;5078710;28;20304;-62
2022/03/25 03:37:54;;;;;;;57.22;30.90;;;8.70;99.90;;;;;;5062307;28;20025;-63
2022/03/25 03:40:20;;;;;;;58.67;31.27;;;8.70;99.90;;;;;;5079103;28;20044;-63
2022/03/25 03:42:46;;;;;;;57.05;31.52;;;8.60;99.90;;;;;;5078335;28;20047;-62
2022/03/25 03:45:13;;;;;;;57.75;30.95;;;8.50;99.90;;;;;;5078357;28;20473;-64
2022/03/25 03:47:40;;;;;;;60.78;32.38;;;8.50;99.90;;;;;;5078316;28;20052;-63
2022/03/25 03:50:09;;;;;;;60.15;32.20;;;8.40;99.90;;;;;;5078242;28;20086;-63
2022/03/25 03:52:35;;;;;;;61.03;32.85;;;8.40;99.90;;;;;;5079406;28;20039;-63
2022/03/25 03:55:04;;;;;;;59.55;30.25;;;8.30;99.90;;;;;;5078263;28;20025;-63
2022/03/25 03:57:30;;;;;;;54.55;29.90;;;8.40;99.90;;;;;;5078675;28;20016;-63
2022/03/25 03:59:56;;;;;;;55.45;30.92;;;8.40;99.90;;;;;;5078898;28;20096;-63
2022/03/25 04:02:22;;;;;;;58.00;31.25;;;8.30;99.90;;;;;;5061286;28;20286;-63
2022/03/25 04:04:48;;;;;;;53.47;29.98;;;8.30;99.90;;;;;;5078816;28;20032;-63
2022/03/25 04:07:15;;;;;;;57.10;31.45;;;8.30;99.90;;;;;;5079141;28;20123;-63
2022/03/25 04:09:41;;;;;;;56.33;31.65;;;8.20;99.90;;;;;;5078707;28;20040;-63
2022/03/25 04:12:13;;;;;;;58.80;30.92;;;8.10;99.90;;;;;;5078602;28;20032;-63
2022/03/25 04:14:39;;;;;;;54.53;29.52;;;8.20;99.90;;;;;;5079091;28;20434;-63
2022/03/25 04:17:05;;;;;;;59.78;31.38;;;8.10;99.90;;;;;;5079449;28;20025;-63
2022/03/25 04:19:31;;;;;;;52.63;29.83;;;8.10;99.90;;;;;;5078544;28;20350;-63
2022/03/25 04:21:57;;;;;;;59.80;30.08;;;8.10;99.90;;;;;;5078525;28;20029;-63
2022/03/25 04:24:23;;;;;;;58.45;31.25;;;8.00;99.90;;;;;;5078472;28;20094;-63
2022/03/25 04:26:49;;;;;;;56.70;30.02;;;8.00;99.90;;;;;;5077552;28;20076;-63
2022/03/25 04:29:14;;;;;;;56.25;30.02;;;8.10;99.90;;;;;;5060891;28;20075;-63
2022/03/25 04:31:40;;;;;;;56.47;30.75;;;8.00;99.90;;;;;;5078001;28;20064;-63
2022/03/25 04:34:06;;;;;;;56.15;30.25;;;8.00;99.90;;;;;;5078275;28;20399;-63
2022/03/25 04:36:34;;;;;;;53.65;29.27;;;7.90;99.90;;;;;;5060821;28;20401;-63
2022/03/25 04:39:00;;;;;;;53.92;29.13;;;7.90;99.90;;;;;;5077918;28;20075;-63
2022/03/25 04:41:26;;;;;;;57.08;30.95;;;7.90;99.90;;;;;;5077933;28;20036;-63
2022/03/25 04:43:52;;;;;;;53.90;29.52;;;7.80;99.90;;;;;;5077862;28;20040;-63
2022/03/25 04:46:18;;;;;;;57.08;29.48;;;7.80;99.90;;;;;;5077972;28;20043;-64
2022/03/25 04:48:44;;;;;;;59.63;30.50;;;7.90;99.90;;;;;;5060767;28;20178;-63
2022/03/25 04:51:10;;;;;;;59.40;29.02;;;7.80;99.90;;;;;;5076994;28;20411;-63
2022/03/25 04:53:36;;;;;;;58.63;29.90;;;7.80;99.90;;;;;;5077341;28;20109;-63
2022/03/25 04:56:02;;;;;;;54.95;30.80;;;7.70;99.90;;;;;;5077814;28;20021;-63
2022/03/25 04:58:28;;;;;;;54.90;29.20;;;7.70;99.90;;;;;;5077818;28;20028;-63
2022/03/25 05:00:55;;;;;;;53.90;29.20;;;7.60;99.90;;;;;;5077972;28;20111;-63
2022/03/25 05:03:21;;;;;;;55.38;30.15;;;7.60;99.90;;;;;;5077831;28;20039;-63
2022/03/25 05:05:48;;;;;;;57.35;30.35;;;7.60;99.90;;;;;;5077496;28;20192;-63
2022/03/25 05:08:14;;;;;;;58.90;29.75;;;7.40;99.90;;;;;;5077672;28;20029;-64
2022/03/25 05:10:40;;;;;;;53.40;28.92;;;7.40;99.90;;;;;;5076895;28;20036;-64
2022/03/25 05:13:08;;;;;;;55.05;29.17;;;7.40;99.90;;;;;;5060192;28;20123;-63
2022/03/25 05:15:34;;;;;;;56.50;29.73;;;7.30;99.90;;;;;;5076839;28;20035;-63
2022/03/25 05:18:01;;;;;;;50.95;29.30;;;7.30;99.90;;;;;;5076747;28;20032;-64
2022/03/25 05:20:27;;;;;;;53.88;28.95;;;7.30;99.90;;;;;;5060009;28;20024;-64
2022/03/25 05:22:53;;;;;;;55.25;29.42;;;7.30;99.90;;;;;;5076840;28;20044;-63
2022/03/25 05:25:20;;;;;;;56.28;30.30;;;7.20;99.90;;;;;;5043585;28;20028;-62
2022/03/25 05:27:51;;;;;;;53.60;29.70;;;7.20;99.90;;;;;;5077340;28;20404;-62
2022/03/25 05:30:26;;;;;;;55.28;29.80;;;7.20;99.90;;;;;;5077372;28;20035;-62
2022/03/25 05:32:54;;;;;;;57.53;29.20;;;7.20;99.90;;;;;;5076407;28;20040;-62
2022/03/25 05:35:21;;;;;;;56.10;29.05;;;7.20;99.90;;;;;;5076513;28;20021;-62
2022/03/25 05:37:47;;;;;;;55.03;29.10;;;7.20;99.90;;;;;;5059827;28;20274;-62
2022/03/25 05:40:13;;;;;;;56.80;29.88;;;7.10;99.90;;;;;;5076088;28;20056;-62
2022/03/25 05:42:40;;;;;;;60.50;30.15;;;7.20;99.90;;;;;;5076244;28;20277;-62
2022/03/25 05:45:07;;;;;;;54.47;29.48;;;7.10;99.90;;;;;;5076290;28;20039;-62
2022/03/25 05:47:35;;;;;;;56.47;28.75;;;7.10;99.90;;;;;;5076125;28;20035;-62
2022/03/25 05:50:01;;;;;;;58.13;28.67;;;7.10;99.90;;;;;;5076160;28;20363;-62
2022/03/25 05:52:27;;;;;;;56.85;29.88;;;7.10;99.90;;;;;;5076021;28;20036;-63
2022/03/25 05:54:53;;;;;;;52.47;28.33;;;7.20;99.90;;;;;;5075960;28;20098;-62
2022/03/25 05:57:19;;;;;;;58.53;30.15;;;7.10;99.90;;;;;;5075828;28;20435;-62
2022/03/25 05:59:46;;;;;;;58.47;29.30;;;7.10;99.90;;;;;;5076792;28;20064;-62
2022/03/25 06:02:11;;;;;;;54.53;29.90;;;7.20;99.90;;;;;;5043400;28;20324;-62
2022/03/25 06:04:37;;;;;;;55.38;28.60;;;7.20;99.90;;;;;;5075870;28;20040;-62
2022/03/25 06:07:03;;;;;;;55.72;29.80;;;7.20;99.90;;;;;;5076528;28;20044;-62
2022/03/25 06:09:29;;;;;;;55.90;29.13;;;7.20;99.90;;;;;;5076603;28;20032;-63
2022/03/25 06:11:56;;;;;;;54.63;28.52;;;7.30;99.90;;;;;;5076377;28;20040;-63
2022/03/25 06:14:22;;;;;;;53.78;29.00;;;7.30;99.90;;;;;;5076572;28;20051;-62
2022/03/25 06:16:48;;;;;;;55.33;29.00;;;7.40;99.90;;;;;;5076659;28;20077;-62
2022/03/25 06:19:14;;;;;;;52.72;29.95;;;7.40;99.90;;;;;;5075717;28;20111;-62
2022/03/25 06:21:40;;;;;;;51.75;29.77;;;7.50;99.90;;;;;;5075807;28;20051;-62
2022/03/25 06:24:06;;;;;;;53.03;28.52;;;7.50;99.90;;;;;;5076590;28;20393;-64
2022/03/25 06:26:31;;;;;;;53.40;29.75;;;7.60;99.90;;;;;;5076503;28;20035;-63
2022/03/25 06:28:57;;;;;;;55.10;30.35;;;7.60;99.90;;;;;;5076562;28;20145;-63
2022/03/25 06:31:23;;;;;;;57.90;29.45;;;7.60;99.90;;;;;;5075752;28;20028;-63
2022/03/25 06:33:49;;;;;;;53.70;29.27;;;7.70;99.90;;;;;;5075789;28;20029;-63
2022/03/25 06:36:14;;;;;;;57.85;30.17;;;7.70;99.90;;;;;;5059110;28;20039;-63
2022/03/25 06:38:41;;;;;;;55.85;30.65;;;7.90;99.90;;;;;;5076261;28;20328;-63
2022/03/25 06:41:07;;;;;;;53.42;30.30;;;7.90;99.90;;;;;;5076615;28;20028;-63
2022/03/25 06:43:34;;;;;;;55.58;30.35;;;8.00;99.90;;;;;;5075761;28;20043;-63
2022/03/25 06:46:00;;;;;;;50.85;29.38;;;8.20;99.90;;;;;;5076391;28;20419;-63
2022/03/25 06:48:26;;;;;;;56.58;29.90;;;8.20;99.90;;;;;;5076335;28;20025;-63
2022/03/25 06:50:53;;;;;;;55.78;29.98;;;8.30;99.90;;;;;;5076307;28;20082;-63
2022/03/25 06:53:19;;;;;;;52.00;29.92;;;8.40;99.90;;;;;;5059707;28;20043;-63
2022/03/25 06:55:45;;;;;;;50.47;29.75;;;8.50;99.90;;;;;;5079316;28;20036;-63
2022/03/25 06:58:12;;;;;;;52.08;29.42;;;8.50;99.90;;;;;;5062623;28;20028;-63
2022/03/25 07:00:38;;;;;;;55.08;28.90;;;8.60;99.90;;;;;;5079824;28;20043;-64
2022/03/25 07:03:04;;;;;;;53.30;28.63;;;8.70;99.90;;;;;;5080279;28;20334;-62
2022/03/25 07:05:31;;;;;;;52.08;28.95;;;8.80;99.90;;;;;;5079830;28;20043;-62
2022/03/25 07:07:58;;;;;;;49.83;28.88;;;8.90;99.90;;;;;;5079150;28;20420;-62
2022/03/25 07:10:26;;;;;;;55.60;30.08;;;9.00;99.90;;;;;;5079138;28;20297;-62
2022/03/25 07:12:54;;;;;;;55.90;29.15;;;9.00;99.90;;;;;;5078843;28;20078;-62
2022/03/25 07:15:21;;;;;;;52.55;29.55;;;9.10;99.90;;;;;;5080170;28;20063;-61
2022/03/25 07:17:47;;;;;;;54.28;29.17;;;9.20;99.90;;;;;;5079029;28;20020;-63
2022/03/25 07:20:15;;;;;;;54.60;29.67;;;9.40;99.90;;;;;;5062233;28;20070;-62
2022/03/25 07:22:42;;;;;;;38.08;21.02;;;9.40;99.90;;;;;;5079017;28;20032;-61
2022/03/25 07:25:14;;;;;;;53.00;28.75;;;9.70;99.90;;;;;;5079565;28;20399;-60
2022/03/25 07:27:42;;;;;;;47.63;28.02;;;10.20;99.90;;;;;;5062369;28;20029;-62
2022/03/25 07:30:09;;;;;;;61.00;31.15;;;10.40;99.90;;;;;;5079100;28;20037;-62
2022/03/25 07:32:34;;;;;;;59.00;29.77;;;10.30;99.90;;;;;;5079447;28;20112;-62
2022/03/25 07:35:00;;;;;;;56.17;29.98;;;10.00;99.90;;;;;;5079791;28;20108;-62
2022/03/25 07:37:26;;;;;;;49.13;28.50;;;10.00;99.90;;;;;;5061873;28;20028;-62
2022/03/25 07:39:52;;;;;;;48.88;27.73;;;10.00;99.90;;;;;;5079756;28;20460;-62
2022/03/25 07:42:19;;;;;;;54.88;30.05;;;10.10;99.90;;;;;;5078428;28;20044;-62
2022/03/25 07:44:46;;;;;;;61.17;31.77;;;10.20;99.90;;;;;;5078237;28;20033;-63
2022/03/25 07:47:13;;;;;;;63.67;30.63;;;10.30;99.90;;;;;;5079225;28;20037;-63
2022/03/25 07:49:40;;;;;;;49.35;29.75;;;10.30;99.90;;;;;;5079261;28;20341;-63
2022/03/25 07:52:14;;;;;;;53.25;29.63;;;10.30;99.90;;;;;;5078222;28;20016;-63
2022/03/25 07:54:40;;;;;;;58.65;31.35;;;10.40;99.90;;;;;;5079208;28;20273;-63
2022/03/25 07:57:06;;;;;;;54.13;30.80;;;10.50;99.90;;;;;;5078309;28;20021;-63
2022/03/25 07:59:32;;;;;;;56.80;30.98;;;10.50;99.90;;;;;;5078297;28;20039;-62
2022/03/25 08:01:58;;;;;;;54.58;32.03;;;10.40;99.90;;;;;;5078946;28;20036;-62
2022/03/25 08:04:24;;;;;;;57.72;32.00;;;10.50;99.90;;;;;;5078575;28;20339;-63
2022/03/25 08:06:54;;;;;;;53.15;30.27;;;10.60;99.90;;;;;;5078219;28;20119;-63
2022/03/25 08:09:20;;;;;;;51.60;30.25;;;10.70;99.90;;;;;;5078731;28;20032;-62
2022/03/25 08:11:46;;;;;;;52.97;31.13;;;10.70;99.90;;;;;;5077906;28;20312;-62
2022/03/25 08:14:16;;;;;;;54.10;31.02;;;10.90;99.90;;;;;;5077899;28;20059;-62
2022/03/25 08:16:45;;;;;;;57.67;30.33;;;11.00;99.90;;;;;;5078630;28;20449;-63
2022/03/25 08:19:11;;;;;;;52.58;30.88;;;11.00;99.90;;;;;;5078541;28;20062;-63
2022/03/25 08:21:37;;;;;;;53.90;30.10;;;11.10;99.90;;;;;;5077796;28;20035;-63
2022/03/25 08:29:33;;;;;;;50.30;27.75;;;11.30;99.90;;;;;;5078478;28;20051;-62
2022/03/25 08:31:59;;;;;;;51.28;27.75;;;11.40;99.90;;;;;;5077620;28;20032;-63
2022/03/25 08:34:25;;;;;;;51.47;27.77;;;11.50;99.90;;;;;;5078223;28;20031;-63
2022/03/25 08:36:51;;;;;;;45.28;27.15;;;11.70;99.90;;;;;;5077306;28;20131;-62
2022/03/25 08:39:17;;;;;;;44.53;26.52;;;11.70;99.90;;;;;;5078061;28;20068;-62
2022/03/25 08:41:43;;;;;;;44.10;25.85;;;11.80;99.90;;;;;;5078317;28;20123;-62
2022/03/25 08:44:10;;;;;;;50.10;27.20;;;11.80;99.90;;;;;;5078045;28;20028;-62
2022/03/25 08:46:36;;;;;;;43.22;24.90;;;11.80;99.90;;;;;;5077361;28;20040;-62
2022/03/25 08:49:03;;;;;;;45.30;25.08;;;11.80;99.90;;;;;;5077919;28;20039;-63
2022/03/25 08:51:29;;;;;;;44.72;24.70;;;11.90;99.90;;;;;;5077103;28;20040;-62
2022/03/25 08:53:55;;;;;;;41.38;24.27;;;12.10;99.90;;;;;;5077966;28;20380;-62
2022/03/25 08:56:24;;;;;;;45.00;25.00;;;12.40;99.90;;;;;;5060559;28;20060;-63
2022/03/25 08:58:54;;;;;;;40.40;24.02;;;12.60;99.90;;;;;;5076848;28;20073;-62
2022/03/25 09:01:22;;;;;;;40.72;24.40;;;12.70;99.90;;;;;;5077593;28;20097;-63
2022/03/25 09:03:48;;;;;;;43.30;24.80;;;12.60;99.90;;;;;;5077679;28;20335;-61
2022/03/25 09:06:13;;;;;;;42.10;25.13;;;12.80;99.90;;;;;;5077627;28;20086;-63
2022/03/25 09:08:39;;;;;;;44.10;25.15;;;12.80;99.90;;;;;;5060280;28;20351;-62
2022/03/25 09:11:05;;;;;;;40.97;24.70;;;13.00;99.90;;;;;;5076817;28;20503;-62
2022/03/25 09:13:31;;;;;;;42.28;25.52;;;13.10;99.90;;;;;;5076556;28;20043;-62
2022/03/25 09:15:57;;;;;;;40.53;24.17;;;13.20;99.90;;;;;;5060095;28;20292;-62
2022/03/25 09:18:23;;;;;;;40.13;25.25;;;13.40;99.90;;;;;;5076708;28;20024;-59
2022/03/25 09:20:49;;;;;;;42.58;25.25;;;13.40;99.90;;;;;;5077787;28;20293;-62
2022/03/25 09:23:15;;;;;;;41.28;26.17;;;13.50;99.90;;;;;;5076583;28;20043;-62
2022/03/25 09:25:41;;;;;;;43.50;25.23;;;13.60;99.90;;;;;;5077247;28;20123;-62
2022/03/25 09:28:08;;;;;;;40.08;25.00;;;13.70;99.90;;;;;;5077246;28;20270;-61
2022/03/25 09:30:34;;;;;;;40.03;24.88;;;13.80;99.90;;;;;;5077022;28;20037;-61
2022/03/25 09:33:00;;;;;;;41.78;26.33;;;13.80;99.90;;;;;;5076280;28;20037;-61
2022/03/25 09:35:26;;;;;;;46.22;26.33;;;14.00;99.90;;;;;;5059576;28;20277;-62
2022/03/25 09:37:52;;;;;;;46.28;27.25;;;14.20;99.90;;;;;;5076362;28;20093;-62
2022/03/25 09:40:23;;;;;;;40.08;25.38;;;14.30;99.90;;;;;;5076797;28;20059;-61
2022/03/25 09:42:51;;;;;;;39.55;25.33;;;14.30;99.90;;;;;;5077006;28;20028;-61
2022/03/25 09:45:18;;;;;;;38.13;24.60;;;14.30;99.90;;;;;;5076309;28;20040;-62
2022/03/25 09:47:45;;;;;;;41.30;24.15;;;14.50;99.90;;;;;;5075988;28;20284;-61
2022/03/25 09:50:14;;;;;;;40.20;24.85;;;14.60;99.90;;;;;;5076821;28;20035;-61
2022/03/25 09:52:43;;;;;;;42.38;23.52;;;14.70;99.90;;;;;;5076011;28;20028;-62
2022/03/25 09:55:09;;;;;;;31.83;20.90;;;14.70;99.90;;;;;;5059879;28;20043;-62
2022/03/25 09:57:36;;;;;;;35.33;20.50;;;14.90;99.90;;;;;;5076021;28;20032;-62
2022/03/25 10:00:07;;;;;;;35.17;20.88;;;14.90;99.90;;;;;;5076084;28;20034;-62
2022/03/25 10:02:38;;;;;;;38.75;22.92;;;15.10;99.90;;;;;;5076658;28;20076;-62
2022/03/25 10:05:22;;;;;;;43.10;25.98;;;15.00;99.90;;;;;;5075902;28;20056;-62
2022/03/25 10:07:55;;;;;;;37.65;23.45;;;15.00;99.90;;;;;;5075994;28;20090;-63
2022/03/25 10:10:28;;;;;;;35.83;24.35;;;14.90;99.90;;;;;;5076645;28;20033;-63
2022/03/25 10:13:02;;;;;;;40.90;25.77;;;15.00;99.90;;;;;;5076637;28;20035;-62
2022/03/25 10:15:31;;;;;;;44.80;27.20;;;15.20;99.90;;;;;;5076698;28;20029;-63
2022/03/25 10:18:03;;;;;;;48.10;28.75;;;15.40;99.90;;;;;;5075897;28;20471;-62
2022/03/25 10:20:37;;;;;;;43.17;25.08;;;15.40;99.90;;;;;;5075777;28;20040;-61
2022/03/25 10:23:19;;;;;;;44.85;26.13;;;15.60;99.90;;;;;;5076613;28;20043;-62
2022/03/25 10:25:55;;;;;;;42.75;24.33;;;15.70;99.90;;;;;;5076533;28;20032;-62
2022/03/25 10:28:30;;;;;;;45.42;26.35;;;15.70;99.90;;;;;;5059899;28;20384;-62
2022/03/25 10:31:02;;;;;;;39.97;25.15;;;15.90;99.90;;;;;;5080965;28;20039;-62
2022/03/25 10:33:36;;;;;;;37.53;23.63;;;16.20;99.90;;;;;;5080423;28;20343;-62
2022/03/25 10:36:07;;;;;;;36.40;22.92;;;16.30;99.10;;;;;;5080578;28;20077;-63
2022/03/25 10:38:48;;;;;;;38.45;23.08;;;16.70;98.40;;;;;;5080343;28;20099;-62
2022/03/25 10:41:16;;;;;;;33.72;20.30;;;17.50;96.80;;;;;;5080379;28;20033;-62
2022/03/25 10:43:56;;;;;;;36.78;21.63;;;18.40;94.40;;;;;;5080307;28;20399;-62
2022/03/25 10:46:29;;;;;;;37.72;23.90;;;19.50;92.10;;;;;;5080267;28;20274;-62
2022/03/25 10:48:55;;;;;;;34.17;24.30;;;19.80;91.00;;;;;;5079552;28;20028;-62
2022/03/25 10:51:21;;;;;;;31.35;20.83;;;20.40;90.50;;;;;;5079391;28;20032;-62
2022/03/25 10:53:56;;;;;;;31.15;21.05;;;20.70;82.00;;;;;;5080129;28;20029;-61
2022/03/25 10:56:22;;;;;;;30.80;22.10;;;21.10;82.80;;;;;;5080122;28;20067;-62
2022/03/25 10:58:53;;;;;;;34.92;24.30;;;21.90;80.30;;;;;;5062875;28;20427;-62
2022/03/25 11:01:20;;;;;;;38.75;25.08;;;22.70;77.70;;;;;;5079923;28;20036;-62
2022/03/25 11:03:49;;;;;;;33.95;22.52;;;23.20;75.00;;;;;;5079739;28;20024;-62
2022/03/25 11:06:21;;;;;;;28.35;20.23;;;22.60;72.00;;;;;;5079266;28;20054;-62
2022/03/25 11:08:47;;;;;;;28.38;21.67;;;22.80;71.20;;;;;;5079181;28;20078;-62
2022/03/25 11:11:17;;;;;;;34.00;23.45;;;22.60;69.30;;;;;;5079624;28;20028;-63
2022/03/25 11:13:44;;;;;;;35.40;22.52;;;23.50;68.80;;;;;;5079706;28;20059;-63
2022/03/25 11:16:15;;;;;;;30.95;22.48;;;24.30;65.20;;;;;;5079755;28;20017;-63
2022/03/25 11:18:43;;;;;;;24.42;18.50;;;24.90;61.60;;;;;;5079698;28;20029;-63
2022/03/25 11:21:09;;;;;;;27.02;19.38;;;23.90;60.90;;;;;;5079596;28;20021;-63
2022/03/25 11:23:49;;;;;;;27.50;18.98;;;22.60;62.20;;;;;;5079709;28;20360;-62
2022/03/25 11:26:19;;;;;;;27.65;19.73;;;22.50;61.80;;;;;;5078993;28;20036;-62
2022/03/25 11:28:46;;;;;;;28.02;20.17;;;23.50;60.40;;;;;;5079539;28;20447;-63
2022/03/25 11:31:11;;;;;;;29.38;21.13;;;25.00;59.10;;;;;;5078659;28;20095;-63
2022/03/25 11:34:09;;;;;;;30.98;22.25;;;25.30;56.40;;;;;;5079505;28;20043;-62
2022/03/25 11:36:40;;;;;;;29.88;21.77;;;25.30;56.00;;;;;;5078641;28;20047;-62
2022/03/25 11:39:27;;;;;;;24.95;18.27;;;25.90;56.20;;;;;;5078960;28;20094;-62
2022/03/25 11:42:02;;;;;;;22.08;17.13;;;25.40;51.60;;;;;;5078696;28;20033;-61
2022/03/25 11:44:29;;;;;;;27.05;17.33;;;23.60;53.70;;;;;;5078756;28;20099;-62
2022/03/25 11:47:01;;;;;;;24.75;17.17;;;24.20;53.00;;;;;;5079337;28;20179;-62
2022/03/25 11:49:31;;;;;;;25.73;18.10;;;25.00;53.00;;;;;;5079204;28;20024;-62
2022/03/25 11:52:23;;;;;;;28.40;18.02;;;26.10;51.90;;;;;;5079289;28;20044;-63
2022/03/25 11:54:55;;;;;;;30.08;19.73;;;26.10;51.00;;;;;;5078831;28;20077;-62
2022/03/25 11:57:23;;;;;;;28.05;19.75;;;26.50;51.80;;;;;;5079183;28;20047;-64
2022/03/25 11:59:50;;;;;;;29.67;18.92;;;25.70;50.80;;;;;;5078976;28;20028;-64
2022/03/25 12:02:23;;;;;;;24.50;15.55;;;25.00;53.00;;;;;;5078086;28;20395;-61
2022/03/25 12:04:49;;;;;;;26.45;16.60;;;25.30;49.40;;;;;;5078929;28;20040;-62
2022/03/25 12:07:16;;;;;;;24.60;16.10;;;25.60;49.90;;;;;;5078873;28;20044;-63
2022/03/25 12:09:46;;;;;;;26.98;19.08;;;27.00;49.50;;;;;;5078944;28;20036;-63
2022/03/25 12:12:13;;;;;;;26.13;18.08;;;28.00;48.10;;;;;;5077987;28;20043;-62
2022/03/25 12:15:05;;;;;;;26.75;17.83;;;28.30;47.80;;;;;;5078686;28;20024;-61
2022/03/25 12:17:31;;;;;;;26.90;18.17;;;28.00;47.30;;;;;;5078597;28;20024;-62
2022/03/25 12:19:59;;;;;;;24.00;18.00;;;28.00;46.50;;;;;;5078639;28;20296;-62
2022/03/25 12:22:27;;;;;;;27.10;17.60;;;27.70;47.60;;;;;;5078461;28;20043;-63
2022/03/25 12:25:04;;;;;;;24.95;16.88;;;28.20;46.70;;;;;;5078553;28;20063;-63
2022/03/25 12:27:29;;;;;;;24.25;16.20;;;29.30;45.50;;;;;;5078618;28;20108;-62
2022/03/25 12:29:55;;;;;;;25.48;16.13;;;28.60;44.90;;;;;;5078939;28;20116;-62
2022/03/25 12:32:30;;;;;;;23.45;16.27;;;27.80;45.90;;;;;;5078242;28;20090;-63
2022/03/25 12:35:03;;;;;;;21.90;16.52;;;26.60;47.90;;;;;;5078939;28;20039;-63
2022/03/25 12:37:35;;;;;;;23.75;17.70;;;27.60;46.70;;;;;;5078498;28;20035;-62
2022/03/25 12:40:10;;;;;;;28.05;17.90;;;28.20;45.30;;;;;;5077952;28;20048;-62